echo '';

Nearby METAR Reports

 

ENRY - Rygge (nor-Afb), Norway
Distance from station: NV 23km
Oppdatert: 21/02/2018 15:50
Overskyet
Overskyet
 Vind fra Ø
Vind: Ø 7 km/h
Temperatur: -2°C
Vindkjøling: -6°C
Duggpunkt: -4°C
Fuktighet: 86%
Barometer: 1026 hPa
Clouds: Overskyet
Visibility: 10 km
Cloud details: Few Clouds 244 m
Overskyet 335 m
2018/02/21 14:50 ENRY 211450Z 08004KT 030V100 9999 FEW008 OVC011 M02/M04 Q1026
ENTO - Torp (civ/Nor-Af, Norway
Distance from station: V 47km
Oppdatert: 21/02/2018 15:50
Overskyet
Overskyet
 Vind fra N
Vind: N 9 km/h
Temperatur: -3°C
Vindkjøling: -7°C
Duggpunkt: -3°C
Fuktighet: 100%
Barometer: 1026 hPa
Clouds: Overskyet
Visibility: 4 km
Cloud details: Overskyet 122 m
2018/02/21 14:50 ENTO 211450Z 01005KT 4000 OVC004 M03/M03 Q1026
 
ENSN - Skien/Geiterygge, Norway
Distance from station: V 87km
Oppdatert: 09/11/2015 09:50
NOT Current
Klart
Klart
 Vind fra SSV
Vind: SSV 19 km/h, Vindkast: 41 km/h
Temperatur: 7°C
Vindkjøling: 4°C
Duggpunkt: 3°C
Fuktighet: 76%
Barometer: 1000 hPa
Oversikt: Klart
Visibility: greater than 10 km
2015/11/09 08:50 ENSN 090850Z 20010G22KT 150V240 CAVOK 07/03 Q1000
ENGM - Oslo/Gardermoen, Norway
Distance from station: 0 107km
Oppdatert: 21/02/2018 15:50
Hovedsaklig skyet
Hovedsaklig skyet
 Vind fra SSV
Vind: SSV 6 km/h
Temperatur: -4°C
Duggpunkt: -6°C
Fuktighet: 86%
Barometer: 1025 hPa
Clouds: Hovedsaklig skyet
Visibility: 10 km
Cloud details: Hovedsaklig skyet 335 m
2018/02/21 14:50 ENGM 211450Z 20003KT 9999 BKN011 M04/M06 Q1025 NOSIG
 
ENNO - Notodden, Norway
Distance from station: VNV 112km
Oppdatert: 21/02/2018 15:50
Klart
Klart
 Vind fra Ø
Vind: Ø 15 km/h
Temperatur: -1°C
Vindkjøling: -6°C
Duggpunkt: -4°C
Fuktighet: 80%
Barometer: 1026 hPa
Oversikt: Klart
Visibility: greater than 10 km
2018/02/21 14:50 ENNO 211450Z 10008KT CAVOK M01/M04 Q1026
ESGT - Trollhattan (pvt, Sweden
Distance from station: SØ 125km
Oppdatert: 21/02/2018 15:50
Hovedsaklig skyet
Hovedsaklig skyet
 Vind fra ØNØ
Vind: ØNØ 11 km/h
Temperatur: -1°C
Vindkjøling: -5°C
Duggpunkt: -3°C
Fuktighet: 86%
Barometer: 1026 hPa
Clouds: Hovedsaklig skyet
Visibility: 10 km
Cloud details: Delvis skyet 579 m
Hovedsaklig skyet 1128 m
2018/02/21 14:50 ESGT 211450Z 06006KT 9999 SCT019 BKN037 M01/M03 Q1026
 
ESIB - Satenas (swe-Afb, Sweden
Distance from station: SØ 129km
Oppdatert: 21/02/2018 15:50
Delvis skyet
Delvis skyet
 Vind fra Ø
Vind: Ø 7 km/h
Temperatur: -2°C
Vindkjøling: -6°C
Duggpunkt: -4°C
Fuktighet: 86%
Barometer: 1026 hPa
Clouds: Delvis skyet
Visibility: 10 km
Cloud details: Delvis skyet 1280 m
2018/02/21 14:50 ESIB 211450Z 08004KT 9999 SCT042 M02/M04 Q1026
ESOK - Karlstad North, Sweden
Distance from station: ØNØ 129km
Oppdatert: 21/02/2018 15:50
Overskyet
Overskyet
 Vind fra Ø
Vind: Ø 6 km/h
Temperatur: -5°C
Duggpunkt: -8°C
Fuktighet: 80%
Barometer: 1027 hPa
Clouds: Overskyet
Visibility: 10 km
Cloud details: Overskyet 457 m
2018/02/21 14:50 ESOK 211450Z 08003KT 9999 OVC015 M05/M08 Q1027
 
ESGP - Goteborg/Save (a, Sweden
Distance from station: SSØ 169km
Oppdatert: 02/01/2017 11:20
NOT Current
Klart
Klart
 Vind fra calm
Vind: Stille
Temperatur: -2°C
Duggpunkt: -4°C
Fuktighet: 86%
Barometer: 1012 hPa
Clouds: Klart
Visibility: 10 km
2017/01/02 10:20 ESGP 021020Z AUTO 00000KT 9999 NCD M02/M04 Q1012
ESGG - Goteborg/Landvet, Sweden
Distance from station: SSØ 188km
Oppdatert: 21/02/2018 15:50
Lett snø, Overskyet
Lett snø, Overskyet
 Vind fra Ø
Vind: Ø 7 km/h
Temperatur: -1°C
Vindkjøling: -4°C
Duggpunkt: -3°C
Fuktighet: 86%
Barometer: 1025 hPa
Oversikt: Lett snø
Clouds: Overskyet
Visibility: 10 km
Cloud details: Overskyet 945 m
2018/02/21 14:50 ESGG 211450Z 10004KT 9999 -SN OVC031 M01/M03 Q1025 R03/19//95
 
EKSN - Sindal Airport, Denmark
Distance from station: SSV 199km
Oppdatert: 16/02/2018 13:50
NOT Current
Hovedsaklig skyet
Hovedsaklig skyet
 Vind fra NV
Vind: NV 11 km/h
Temperatur: 2°C
Vindkjøling: -1°C
Duggpunkt: 1°C
Fuktighet: 93%
Barometer: 1014 hPa
Clouds: Hovedsaklig skyet
Visibility: 10 km
Cloud details: Delvis skyet 427 m
Hovedsaklig skyet 640 m
2018/02/16 12:50 EKSN 161250Z 31006KT 9999 SCT014 BKN021 02/01 Q1014
ENCN - Kristiansand/Kje, Norway
Distance from station: VSV 209km
Oppdatert: 21/02/2018 15:50
Few Clouds
Few Clouds
 Vind fra varies
Vind: varies 6 km/h, Vindkast: 24 km/h
Temperatur: 4°C
Duggpunkt: 0°C
Fuktighet: 75%
Barometer: 1024 hPa
Clouds: Few Clouds
Visibility: 10 km
Cloud details: Few Clouds 853 m
2018/02/21 14:50 ENCN 211450Z VRB03G13KT 9999 FEW028 04/M00 Q1024
 
ENFG - Fagernes/Leirin, Norway
Distance from station: NNV 220km
Oppdatert: 18/02/2018 20:20
NOT Current
Hovedsaklig skyet
Hovedsaklig skyet
 Vind fra N
Vind: N 4 km/h
Temperatur: -11°C
Duggpunkt: -13°C
Fuktighet: 85%
Barometer: 1015 hPa
Clouds: Hovedsaklig skyet
Visibility: 10 km
Cloud details: Hovedsaklig skyet 1676 m
2018/02/18 19:20 ENFG 181920Z 35002KT 9999 BKN055 M11/M13 Q1015
ESOE - Orebro (private), Sweden
Distance from station: Ø 225km
Oppdatert: 21/02/2018 15:50
Overskyet
Overskyet
 Vind fra V
Vind: V 6 km/h
Temperatur: -3°C
Duggpunkt: -7°C
Fuktighet: 74%
Barometer: 1027 hPa
Clouds: Overskyet
Visibility: 10 km
Cloud details: Few Clouds 1433 m
Overskyet 2042 m
2018/02/21 14:50 ESOE 211450Z 27003KT 9999 FEW047 OVC067 M03/M07 Q1027
 
ESGJ - Jonkoping Airpor, Sweden
Distance from station: SØ 238km
Oppdatert: 21/02/2018 15:50
Hovedsaklig skyet
Hovedsaklig skyet
 Vind fra N
Vind: N 9 km/h
Temperatur: -3°C
Vindkjøling: -7°C
Duggpunkt: -5°C
Fuktighet: 86%
Barometer: 1025 hPa
Clouds: Hovedsaklig skyet
Visibility: 10 km
Cloud details: Hovedsaklig skyet 396 m
2018/02/21 14:50 ESGJ 211450Z 01005KT 9999 BKN013 M03/M05 Q1025 R01/710070
EKYT - Alborg, Denmark
Distance from station: SSV 248km
Oppdatert: 21/02/2018 15:50
Mist, Hovedsaklig skyet
Mist, Hovedsaklig skyet
 Vind fra VSV
Vind: VSV 15 km/h
Temperatur: 3°C
Vindkjøling: -1°C
Duggpunkt: 2°C
Fuktighet: 93%
Barometer: 1025 hPa
Oversikt: Mist
Clouds: Hovedsaklig skyet
Visibility: 4 km
Cloud details: Few Clouds 488 m
Delvis skyet 762 m
Hovedsaklig skyet 914 m
2018/02/21 14:50 EKYT 211450Z 25008KT 3500 BR FEW016 SCT025 BKN030 03/02 Q1025
 
ESCF - Linkoping/Malmen, Sweden
Distance from station: ØSØ 272km
Oppdatert: 21/02/2018 15:50
Few Clouds
Few Clouds
 Vind fra varies
Vind: varies 4 km/h
Temperatur: -5°C
Duggpunkt: -9°C
Fuktighet: 74%
Barometer: 1026 hPa
Clouds: Few Clouds
Visibility: 10 km
Cloud details: Few Clouds 610 m
Few Clouds 1615 m
2018/02/21 14:50 ESCF 211450Z VRB02KT 9999 FEW020 FEW053 M05/M09 Q1026
ESSD - Borlange (swe-Af, Sweden
Distance from station: ØNØ 279km
Oppdatert: 21/02/2018 15:50
Hovedsaklig skyet
Hovedsaklig skyet
 Vind fra VSV
Vind: VSV 2 km/h
Temperatur: -7°C
Duggpunkt: -8°C
Fuktighet: 93%
Barometer: 1026 hPa
Clouds: Hovedsaklig skyet
Visibility: 10 km
Cloud details: Hovedsaklig skyet 1341 m
2018/02/21 14:50 ESSD 211450Z 25001KT 9999 BKN044 M07/M08 Q1026
 
ESSL - Linkoping/Saab, Sweden
Distance from station: ØSØ 280km
Oppdatert: 21/02/2018 15:50
Klart
Klart
 Vind fra varies
Vind: varies 2 km/h
Temperatur: -5°C
Duggpunkt: -8°C
Fuktighet: 80%
Barometer: 1027 hPa
Oversikt: Klart
Visibility: greater than 10 km
2018/02/21 14:50 ESSL 211450Z VRB01KT CAVOK M05/M08 Q1027 R29/12//95
ESMT - Halmstad (swe-Af, Sweden
Distance from station: SSØ 303km
Oppdatert: 21/02/2018 15:50
Lett snø, Overskyet
Lett snø, Overskyet
 Vind fra V
Vind: V 11 km/h
Temperatur: 1°C
Vindkjøling: -2°C
Duggpunkt: 0°C
Fuktighet: 93%
Barometer: 1025 hPa
Oversikt: Lett snø
Clouds: Overskyet
Visibility: 3 km
Cloud details: Overskyet 152 m
2018/02/21 14:50 ESMT 211450Z 27006KT 2900 -SN OVC005 01/M00 Q1025